Wetterdaten: Woche 25.01.10 - 31.01.10 (KW4)
Datum Zeit Temp. A. Feuchte A. Luftdruck Regen Wind Richtung Taupunkt Windchill Windben
25.01.2010 00:00 -5,3 C 79 % 1032,1 hPa 0,0 l/m 2,4 km/h O -8,3 C -5,3 C 10,5 km/h
25.01.2010 01:00 -5,7 C 80 % 1032,1 hPa 0,0 l/m 3,2 km/h O -8,6 C -5,7 C 12,9 km/h
25.01.2010 02:00 -5,9 C 82 % 1032,1 hPa 0,0 l/m 3,2 km/h O-SO -8,5 C -5,9 C 13,7 km/h
25.01.2010 03:00 -6,1 C 83 % 1032,1 hPa 0,0 l/m 2,4 km/h O-SO -8,5 C -6,1 C 16,1 km/h
25.01.2010 04:00 -6,0 C 83 % 1031,9 hPa 0,0 l/m 3,2 km/h O-SO -8,4 C -6,0 C 12,1 km/h
25.01.2010 05:00 -6,1 C 83 % 1031,9 hPa 0,0 l/m 4,0 km/h O-SO -8,5 C -6,1 C 17,7 km/h
25.01.2010 06:00 -6,2 C 83 % 1031,7 hPa 0,0 l/m 5,6 km/h O-SO -8,7 C -6,2 C 16,9 km/h
25.01.2010 07:00 -6,1 C 83 % 1031,9 hPa 0,0 l/m 4,8 km/h O-SO -8,5 C -6,1 C 19,3 km/h
25.01.2010 08:00 -5,8 C 83 % 1032,3 hPa 0,0 l/m 4,8 km/h O -8,2 C -5,8 C 16,1 km/h
25.01.2010 09:00 -5,2 C 81 % 1032,7 hPa 0,0 l/m 4,2 km/h O -7,9 C -5,2 C 15,6 km/h
25.01.2010 10:00 -4,4 C 79 % 1032,9 hPa 0,0 l/m 4,3 km/h S-SO -7,5 C -4,4 C 12,1 km/h
25.01.2010 11:00 -4,0 C 77 % 1032,9 hPa 0,0 l/m 4,2 km/h S-SO -7,5 C -4,0 C 14,1 km/h
25.01.2010 12:00 -3,8 C 76 % 1033,1 hPa 0,0 l/m 4,4 km/h S -7,4 C -3,8 C 14,5 km/h
25.01.2010 13:00 -3,4 C 75 % 1032,1 hPa 0,0 l/m 5,3 km/h O -7,3 C -3,4 C 14,9 km/h
25.01.2010 14:00 -3,5 C 74 % 1032,0 hPa 0,0 l/m 4,7 km/h O -7,4 C -3,5 C 12,5 km/h
25.01.2010 15:00 -3,5 C 73 % 1032,0 hPa 0,0 l/m 3,6 km/h O -7,6 C -3,5 C 12,9 km/h
25.01.2010 16:00 -3,8 C 75 % 1032,2 hPa 0,0 l/m 3,0 km/h S-SO -7,6 C -3,8 C 13,3 km/h
25.01.2010 17:00 -4,0 C 76 % 1032,5 hPa 0,0 l/m 3,0 km/h O-SO -7,6 C -4,0 C 11,7 km/h
25.01.2010 18:00 -4,1 C 77 % 1032,8 hPa 0,0 l/m 2,6 km/h S-SO -7,6 C -4,1 C 8,4 km/h
25.01.2010 19:00 -4,2 C 78 % 1032,7 hPa 0,0 l/m 2,2 km/h O-SO -7,5 C -4,2 C 8,1 km/h
25.01.2010 20:00 -4,3 C 78 % 1032,8 hPa 0,0 l/m 2,7 km/h SO -7,6 C -4,3 C 10,5 km/h
25.01.2010 21:00 -4,5 C 78 % 1033,1 hPa 0,0 l/m 2,1 km/h O-SO -7,7 C -4,5 C 7,2 km/h
25.01.2010 22:00 -4,6 C 78 % 1032,9 hPa 0,0 l/m 2,1 km/h S-SO -7,9 C -4,6 C 7,2 km/h
25.01.2010 23:00 -4,9 C 79 % 1033,0 hPa 0,0 l/m 1,9 km/h S-SO -8,0 C -4,9 C 8,1 km/h
26.01.2010 00:00 -5,2 C 80 % 1032,9 hPa 0,0 l/m 1,4 km/h S -8,1 C -5,2 C 7,2 km/h
26.01.2010 01:00 -5,7 C 82 % 1032,6 hPa 0,0 l/m 2,5 km/h O -8,3 C -5,7 C 8,9 km/h
26.01.2010 02:00 -5,9 C 82 % 1032,8 hPa 0,0 l/m 1,1 km/h O-SO -8,5 C -5,9 C 6,4 km/h
26.01.2010 03:00 -6,0 C 81 % 1032,5 hPa 0,0 l/m 1,2 km/h O-SO -8,7 C -6,0 C 6,8 km/h
26.01.2010 04:00 -6,3 C 82 % 1032,6 hPa 0,0 l/m 2,7 km/h O-SO -8,8 C -6,3 C 9,3 km/h
26.01.2010 05:00 -6,5 C 84 % 1032,7 hPa 0,0 l/m 2,1 km/h O-SO -8,7 C -6,5 C 8,0 km/h
26.01.2010 06:00 -6,6 C 85 % 1033,1 hPa 0,0 l/m 2,0 km/h O-SO -8,7 C -6,6 C 7,2 km/h
26.01.2010 07:00 -6,8 C 86 % 1033,7 hPa 0,0 l/m 2,8 km/h O-SO -8,8 C -6,8 C 7,6 km/h
26.01.2010 08:00 -6,9 C 86 % 1034,3 hPa 0,0 l/m 2,2 km/h O-SO -8,8 C -6,9 C 6,4 km/h
26.01.2010 09:00 -6,6 C 86 % 1034,9 hPa 0,0 l/m 2,7 km/h O-SO -8,6 C -6,6 C 5,2 km/h
26.01.2010 10:00 -5,9 C 80 % 1035,5 hPa 0,0 l/m 3,9 km/h O-SO -8,9 C -5,9 C 8,4 km/h
26.01.2010 11:00 -5,6 C 76 % 1035,6 hPa 0,0 l/m 3,4 km/h O -9,1 C -5,6 C 8,0 km/h
26.01.2010 12:00 -5,6 C 76 % 1035,4 hPa 0,0 l/m 3,2 km/h O -9,1 C -5,6 C 7,2 km/h
26.01.2010 13:00 -4,9 C 67 % 1034,9 hPa 0,0 l/m 1,6 km/h O-NO -10,1 C -4,9 C 4,8 km/h
26.01.2010 14:00 -4,5 C 69 % 1034,9 hPa 0,0 l/m 1,5 km/h O -9,4 C -4,5 C 5,2 km/h
26.01.2010 15:00 -4,9 C 69 % 1035,0 hPa 0,0 l/m 2,1 km/h NO -9,8 C -4,9 C 6,0 km/h
26.01.2010 16:00 -5,3 C 71 % 1035,5 hPa 0,0 l/m 0,6 km/h N -9,8 C -5,3 C 3,6 km/h
26.01.2010 17:00 -5,9 C 73 % 1036,2 hPa 0,0 l/m 0,5 km/h N-NW -10,0 C -5,9 C 3,6 km/h
26.01.2010 18:00 -6,5 C 74 % 1036,3 hPa 0,0 l/m 0,2 km/h N -10,3 C -6,5 C 1,2 km/h
26.01.2010 19:00 -7,8 C 77 % 1036,5 hPa 0,0 l/m 0,6 km/h SW -11,1 C -7,8 C 3,6 km/h
26.01.2010 20:00 -8,2 C 79 % 1036,6 hPa 0,0 l/m 0,6 km/h NW -11,1 C -8,2 C 3,6 km/h
26.01.2010 21:00 -7,7 C 79 % 1036,6 hPa 0,0 l/m 0,8 km/h N -10,6 C -7,7 C 4,0 km/h
26.01.2010 22:00 -8,1 C 78 % 1036,7 hPa 0,3 l/m 1,3 km/h NW -11,2 C -8,1 C 4,8 km/h
26.01.2010 23:00 -8,5 C 79 % 1036,7 hPa 0,0 l/m 1,5 km/h N-NW -11,4 C -8,5 C 5,2 km/h
27.01.2010 00:00 -9,2 C 81 % 1036,7 hPa 0,0 l/m 2,2 km/h NW -11,9 C -9,2 C 7,2 km/h
27.01.2010 01:00 -9,7 C 80 % 1036,5 hPa 0,0 l/m 3,0 km/h NW -12,6 C -9,7 C 7,2 km/h
27.01.2010 02:00 -10,1 C 79 % 1035,8 hPa 0,0 l/m 1,7 km/h NW -13,0 C -10,1 C 5,2 km/h
27.01.2010 03:00 -10,2 C 80 % 1035,0 hPa 0,0 l/m 2,1 km/h NW -13,0 C -10,2 C 8,0 km/h
27.01.2010 04:00 -10,4 C 80 % 1034,7 hPa 0,0 l/m 2,3 km/h NW -13,2 C -10,4 C 6,0 km/h
27.01.2010 05:00 -10,9 C 80 % 1034,3 hPa 0,0 l/m 1,7 km/h N-NW -13,7 C -10,9 C 5,2 km/h
27.01.2010 06:00 -11,2 C 80 % 1034,1 hPa 0,0 l/m 0,8 km/h N -14,0 C -11,2 C 6,4 km/h
27.01.2010 07:00 -11,3 C 78 % 1033,7 hPa 0,0 l/m 1,4 km/h N -14,3 C -11,3 C 5,6 km/h
27.01.2010 08:00 -11,0 C 79 % 1033,0 hPa 0,0 l/m 1,3 km/h NW -13,9 C -11,0 C 5,2 km/h
27.01.2010 09:00 -9,0 C 73 % 1032,4 hPa 0,0 l/m 2,2 km/h NW -13,0 C -9,0 C 6,0 km/h
27.01.2010 10:00 -7,8 C 71 % 1031,9 hPa 0,0 l/m 4,9 km/h NW -12,1 C -7,8 C 10,9 km/h
27.01.2010 11:00 -6,3 C 65 % 1030,8 hPa 0,0 l/m 4,3 km/h NW -11,8 C -6,3 C 8,4 km/h
27.01.2010 12:00 -5,2 C 58 % 1029,1 hPa 0,0 l/m 4,3 km/h NW -12,1 C -5,2 C 8,9 km/h
27.01.2010 13:00 -4,7 C 53 % 1027,7 hPa 0,0 l/m 5,5 km/h N-NW -12,8 C -4,7 C 10,2 km/h
27.01.2010 14:00 -5,3 C 56 % 1026,7 hPa 0,0 l/m 3,1 km/h O-SO -12,7 C -5,3 C 8,0 km/h
27.01.2010 15:00 -6,4 C 61 % 1025,9 hPa 0,0 l/m 1,3 km/h S -12,8 C -6,4 C 6,4 km/h
27.01.2010 16:00 -7,8 C 64 % 1025,3 hPa 0,0 l/m 0,5 km/h N -13,5 C -7,8 C 3,6 km/h
27.01.2010 17:00 -11,1 C 71 % 1024,6 hPa 0,0 l/m 0,0 km/h N -15,3 C -11,1 C 0,4 km/h
27.01.2010 18:00 -12,5 C 77 % 1023,8 hPa 0,0 l/m 0,0 km/h N -15,6 C -12,5 C 0,4 km/h
27.01.2010 19:00 -12,3 C 80 % 1022,7 hPa 0,0 l/m 0,0 km/h N -15,0 C -12,3 C 0,0 km/h
27.01.2010 20:00 -12,3 C 81 % 1021,4 hPa 0,0 l/m 0,0 km/h N -14,8 C -12,3 C 0,4 km/h
27.01.2010 21:00 -12,1 C 82 % 1019,8 hPa 0,0 l/m 0,0 km/h N -14,6 C -12,1 C 0,0 km/h
27.01.2010 22:00 -12,8 C 82 % 1017,7 hPa 0,0 l/m 0,0 km/h N -15,2 C -12,8 C 0,4 km/h
27.01.2010 23:00 -12,8 C 83 % 1016,1 hPa 0,0 l/m 0,1 km/h N -15,1 C -12,8 C 1,6 km/h
28.01.2010 00:00 -12,6 C 84 % 1014,2 hPa 0,0 l/m 0,3 km/h N -14,8 C -12,6 C 2,4 km/h
28.01.2010 01:00 -11,7 C 85 % 1012,5 hPa 0,0 l/m 0,1 km/h N -13,7 C -11,7 C 1,6 km/h
28.01.2010 02:00 -10,5 C 86 % 1011,4 hPa 0,0 l/m 0,3 km/h N -12,4 C -10,5 C 2,0 km/h
28.01.2010 03:00 -9,1 C 86 % 1009,3 hPa 0,0 l/m 0,3 km/h N -11,0 C -9,1 C 2,8 km/h
28.01.2010 04:00 -8,7 C 84 % 1008,4 hPa 0,0 l/m 0,2 km/h N -10,8 C -8,7 C 2,8 km/h
28.01.2010 05:00 -8,5 C 83 % 1006,6 hPa 0,0 l/m 1,5 km/h S-SO -10,9 C -8,5 C 8,1 km/h
28.01.2010 06:00 -5,7 C 83 % 1005,3 hPa 0,0 l/m 3,4 km/h SO -8,1 C -6,4 C 13,3 km/h
28.01.2010 07:00 -0,7 C 80 % 1004,5 hPa 0,0 l/m 10,8 km/h W-SW -3,7 C -4,8 C 31,4 km/h
28.01.2010 08:00 -1,1 C 86 % 1004,0 hPa 0,0 l/m 13,6 km/h W -3,1 C -7,4 C 31,0 km/h
28.01.2010 09:00 -1,0 C 89 % 1003,9 hPa 0,0 l/m 16,3 km/h NW -2,6 C -8,9 C 39,4 km/h
28.01.2010 10:00 -0,1 C 83 % 1004,3 hPa 0,0 l/m 12,7 km/h SW -2,7 C -5,6 C 33,0 km/h
28.01.2010 11:00 0,4 C 75 % 1004,0 hPa 0,0 l/m 14,0 km/h W-SW -3,5 C -5,8 C 35,8 km/h
28.01.2010 12:00 1,0 C 69 % 1003,1 hPa 0,0 l/m 13,6 km/h W -4,0 C -4,8 C 31,8 km/h
28.01.2010 13:00 1,3 C 68 % 1002,3 hPa 0,0 l/m 13,5 km/h W-NW -4,0 C -4,5 C 32,6 km/h
28.01.2010 14:00 1,3 C 69 % 1002,3 hPa 0,0 l/m 9,9 km/h SW -3,8 C -1,9 C 27,4 km/h
28.01.2010 15:00 0,9 C 70 % 1002,0 hPa 0,0 l/m 9,1 km/h W-SW -4,0 C -1,8 C 26,5 km/h
28.01.2010 16:00 0,9 C 70 % 1001,9 hPa 0,0 l/m 11,9 km/h S-SW -4,0 C -3,9 C 29,4 km/h
28.01.2010 17:00 1,0 C 72 % 1002,1 hPa 0,0 l/m 12,7 km/h W -3,6 C -4,3 C 30,2 km/h
28.01.2010 18:00 1,1 C 72 % 1001,7 hPa 0,0 l/m 10,9 km/h W-SW -3,4 C -2,9 C 29,0 km/h
28.01.2010 19:00 1,3 C 71 % 1000,9 hPa 0,0 l/m 14,4 km/h W-SW -3,5 C -4,9 C 39,0 km/h
28.01.2010 20:00 1,3 C 71 % 1000,7 hPa 0,0 l/m 12,0 km/h W-NW -3,5 C -3,6 C 28,6 km/h
28.01.2010 21:00 1,3 C 70 % 1000,4 hPa 0,0 l/m 11,4 km/h W -3,7 C -3,1 C 30,2 km/h
28.01.2010 22:00 1,0 C 71 % 999,8 hPa 0,0 l/m 12,8 km/h W -3,7 C -4,3 C 33,0 km/h
28.01.2010 23:00 1,0 C 71 % 999,3 hPa 0,0 l/m 15,8 km/h W -3,6 C -6,2 C 35,0 km/h
29.01.2010 00:00 1,3 C 71 % 999,0 hPa 0,0 l/m 14,0 km/h NW -3,5 C -4,9 C 33,4 km/h
29.01.2010 01:00 1,2 C 71 % 998,8 hPa 0,0 l/m 12,4 km/h W-NW -3,4 C -3,8 C 33,0 km/h
29.01.2010 02:00 1,2 C 73 % 998,6 hPa 0,0 l/m 12,1 km/h W -3,2 C -3,7 C 29,4 km/h
29.01.2010 03:00 1,4 C 72 % 998,1 hPa 0,0 l/m 12,5 km/h W -3,2 C -3,7 C 33,0 km/h
29.01.2010 04:00 1,4 C 72 % 998,1 hPa 0,0 l/m 8,0 km/h W-SW -3,2 C -0,2 C 25,0 km/h
29.01.2010 05:00 1,3 C 74 % 997,8 hPa 0,0 l/m 8,7 km/h W -2,8 C -0,9 C 23,7 km/h
29.01.2010 06:00 1,0 C 74 % 997,6 hPa 0,0 l/m 8,5 km/h W-SW -3,1 C -1,0 C 26,9 km/h
29.01.2010 07:00 1,3 C 73 % 997,9 hPa 0,0 l/m 9,5 km/h S-SW -3,1 C -1,6 C 25,3 km/h
29.01.2010 08:00 1,5 C 71 % 997,9 hPa 0,0 l/m 9,4 km/h W -3,1 C -1,3 C 27,4 km/h
29.01.2010 09:00 2,2 C 69 % 997,8 hPa 0,0 l/m 10,6 km/h W-SW -3,0 C -1,5 C 27,3 km/h
29.01.2010 10:00 2,8 C 67 % 997,6 hPa 0,0 l/m 8,6 km/h W-SW -2,7 C 0,7 C 22,9 km/h
29.01.2010 11:00 3,0 C 66 % 997,4 hPa 0,3 l/m 6,3 km/h W-SW -2,7 C 2,7 C 19,3 km/h
29.01.2010 12:00 3,0 C 66 % 996,4 hPa 0,0 l/m 6,3 km/h S -2,7 C 2,6 C 19,7 km/h
29.01.2010 13:00 3,6 C 63 % 995,4 hPa 0,3 l/m 6,7 km/h SW -2,9 C 3,0 C 22,1 km/h
29.01.2010 14:00 3,5 C 62 % 994,6 hPa 0,3 l/m 4,8 km/h O-SO -3,1 C 3,1 C 12,9 km/h
29.01.2010 15:00 2,9 C 67 % 993,8 hPa 0,0 l/m 0,9 km/h S -2,6 C 2,9 C 4,4 km/h
29.01.2010 16:00 2,1 C 69 % 993,2 hPa 0,0 l/m 0,3 km/h N -3,1 C 2,1 C 3,2 km/h
29.01.2010 17:00 1,2 C 71 % 992,3 hPa 0,0 l/m 0,3 km/h N -3,4 C 1,2 C 2,0 km/h
29.01.2010 18:00 0,2 C 75 % 991,4 hPa 0,0 l/m 0,4 km/h N -3,7 C 0,2 C 3,2 km/h
29.01.2010 19:00 0,2 C 75 % 991,0 hPa 0,0 l/m 0,6 km/h S -3,8 C 0,2 C 6,0 km/h
29.01.2010 20:00 -0,1 C 73 % 990,2 hPa 0,0 l/m 1,4 km/h SO -4,3 C -0,1 C 5,6 km/h
29.01.2010 21:00 -0,2 C 73 % 989,2 hPa 0,0 l/m 0,7 km/h N -4,4 C -0,2 C 4,8 km/h
29.01.2010 22:00 -0,2 C 73 % 988,0 hPa 0,0 l/m 0,3 km/h N -4,4 C -0,2 C 2,8 km/h
29.01.2010 23:00 -0,1 C 74 % 987,5 hPa 0,0 l/m 1,1 km/h S -4,2 C -0,1 C 4,0 km/h
30.01.2010 00:00 0,3 C 74 % 986,7 hPa 0,0 l/m 0,6 km/h N -3,8 C 0,3 C 5,2 km/h
30.01.2010 01:00 -0,3 C 74 % 986,3 hPa 0,0 l/m 0,1 km/h N -4,4 C -0,3 C 1,6 km/h
30.01.2010 02:00 -1,8 C 77 % 986,3 hPa 0,0 l/m 0,0 km/h N -5,3 C -1,8 C 1,2 km/h
30.01.2010 03:00 -1,8 C 82 % 986,4 hPa 0,0 l/m 0,4 km/h N -4,5 C -1,8 C 3,2 km/h
30.01.2010 04:00 -1,5 C 83 % 986,7 hPa 0,0 l/m 0,1 km/h N -4,1 C -1,5 C 2,0 km/h
30.01.2010 05:00 -1,6 C 83 % 986,8 hPa 0,0 l/m 0,1 km/h N -4,1 C -1,6 C 1,2 km/h
30.01.2010 06:00 -2,0 C 83 % 987,5 hPa 0,0 l/m 0,1 km/h N -4,5 C -2,0 C 1,2 km/h
30.01.2010 07:00 -2,2 C 84 % 988,6 hPa 0,0 l/m 0,0 km/h N -4,6 C -2,2 C 1,6 km/h
30.01.2010 08:00 -0,2 C 84 % 989,9 hPa 0,0 l/m 4,0 km/h W -2,6 C -0,7 C 14,5 km/h
30.01.2010 09:00 2,8 C 73 % 990,8 hPa 0,0 l/m 6,3 km/h NW -1,5 C 2,4 C 17,7 km/h
30.01.2010 10:00 3,1 C 67 % 991,6 hPa 0,0 l/m 5,7 km/h NW -2,5 C 2,7 C 16,9 km/h
30.01.2010 11:00 3,3 C 62 % 992,0 hPa 0,3 l/m 5,5 km/h W-NW -3,3 C 3,3 C 14,9 km/h
30.01.2010 12:00 3,0 C 62 % 992,3 hPa 0,0 l/m 8,9 km/h NW -3,6 C 0,5 C 24,5 km/h
30.01.2010 13:00 2,8 C 61 % 992,5 hPa 0,0 l/m 7,3 km/h W -4,0 C 1,9 C 19,7 km/h
30.01.2010 14:00 2,7 C 58 % 993,2 hPa 0,0 l/m 8,6 km/h W -4,9 C 0,7 C 22,9 km/h
30.01.2010 15:00 2,0 C 59 % 994,1 hPa 0,0 l/m 8,8 km/h NW -5,1 C -0,2 C 24,6 km/h
30.01.2010 16:00 1,6 C 61 % 994,8 hPa 0,0 l/m 8,1 km/h W -5,1 C -0,1 C 22,1 km/h
30.01.2010 17:00 1,3 C 63 % 995,6 hPa 0,0 l/m 5,6 km/h W-NW -5,0 C 1,2 C 16,9 km/h
30.01.2010 18:00 1,0 C 66 % 996,2 hPa 0,0 l/m 4,0 km/h NW -4,7 C 1,0 C 10,1 km/h
30.01.2010 19:00 0,8 C 67 % 996,6 hPa 0,0 l/m 4,3 km/h NW -4,6 C 0,8 C 9,7 km/h
30.01.2010 20:00 0,6 C 69 % 996,9 hPa 0,0 l/m 4,1 km/h W-NW -4,5 C 0,6 C 10,9 km/h
30.01.2010 21:00 0,6 C 68 % 997,5 hPa 0,0 l/m 5,1 km/h NW -4,6 C 0,6 C 15,3 km/h
30.01.2010 22:00 0,4 C 66 % 997,9 hPa 0,0 l/m 6,5 km/h N-NW -5,3 C -0,3 C 18,5 km/h
30.01.2010 23:00 0,4 C 64 % 998,2 hPa 0,0 l/m 8,5 km/h W-NW -5,5 C -1,7 C 22,9 km/h
31.01.2010 00:00 0,3 C 64 % 998,7 hPa 0,0 l/m 8,2 km/h NW -5,6 C -1,5 C 21,7 km/h
31.01.2010 01:00 0,2 C 66 % 998,8 hPa 0,0 l/m 9,1 km/h W-NW -5,4 C -2,5 C 21,7 km/h
31.01.2010 02:00 -0,3 C 70 % 999,3 hPa 0,0 l/m 8,2 km/h NW -5,2 C -2,2 C 20,1 km/h
31.01.2010 03:00 -0,7 C 72 % 999,6 hPa 0,0 l/m 8,3 km/h NW -5,2 C -2,7 C 19,7 km/h
31.01.2010 04:00 -1,1 C 75 % 1000,1 hPa 0,0 l/m 7,3 km/h NW -5,0 C -2,1 C 16,9 km/h
31.01.2010 05:00 -1,3 C 77 % 1000,4 hPa 0,0 l/m 7,4 km/h NW -4,9 C -2,3 C 18,5 km/h
31.01.2010 06:00 -1,4 C 77 % 1000,8 hPa 0,0 l/m 7,7 km/h W-NW -4,9 C -2,8 C 18,9 km/h
31.01.2010 07:00 -1,3 C 75 % 1001,5 hPa 0,0 l/m 9,1 km/h NW -5,1 C -4,0 C 21,3 km/h
31.01.2010 08:00 -1,2 C 75 % 1002,3 hPa 0,0 l/m 8,6 km/h NW -5,1 C -3,5 C 18,9 km/h
31.01.2010 09:00 -1,3 C 79 % 1003,3 hPa 0,0 l/m 7,7 km/h N-NW -4,6 C -2,9 C 16,9 km/h
31.01.2010 10:00 -1,9 C 82 % 1004,0 hPa 0,0 l/m 5,4 km/h N-NO -4,5 C -1,9 C 12,9 km/h
31.01.2010 11:00 -1,9 C 84 % 1004,1 hPa 0,3 l/m 5,8 km/h NW -4,3 C -1,9 C 13,3 km/h
31.01.2010 12:00 -0,9 C 75 % 1003,9 hPa 0,0 l/m 10,1 km/h N -4,9 C -4,2 C 22,6 km/h
31.01.2010 13:00 -0,6 C 68 % 1003,9 hPa 0,0 l/m 10,1 km/h NW -5,7 C -4,1 C 23,3 km/h
31.01.2010 14:00 -0,7 C 67 % 1004,2 hPa 0,0 l/m 10,6 km/h W -6,1 C -4,7 C 25,7 km/h
31.01.2010 15:00 -1,1 C 67 % 1004,8 hPa 0,0 l/m 10,6 km/h W-SW -6,5 C -5,2 C 25,4 km/h
31.01.2010 16:00 -1,3 C 63 % 1005,3 hPa 0,0 l/m 9,6 km/h NW -7,4 C -4,5 C 22,9 km/h
31.01.2010 17:00 -1,6 C 61 % 1006,0 hPa 0,0 l/m 8,7 km/h W-NW -8,1 C -4,0 C 21,3 km/h
31.01.2010 18:00 -1,9 C 63 % 1006,5 hPa 0,0 l/m 11,7 km/h W -8,0 C -6,9 C 25,3 km/h
31.01.2010 19:00 -2,3 C 64 % 1007,3 hPa 0,0 l/m 10,5 km/h NW -8,3 C -6,4 C 25,7 km/h
31.01.2010 20:00 -2,8 C 66 % 1007,7 hPa 0,0 l/m 8,5 km/h NW -8,3 C -5,1 C 20,1 km/h
31.01.2010 21:00 -2,8 C 65 % 1008,0 hPa 0,0 l/m 7,3 km/h W-NW -8,3 C -4,0 C 20,1 km/h
31.01.2010 22:00 -2,4 C 67 % 1008,0 hPa 0,0 l/m 10,0 km/h NW -7,8 C -6,1 C 23,7 km/h
31.01.2010 23:00 -2,2 C 71 % 1008,0 hPa 0,0 l/m 10,3 km/h W-SW -6,7 C -6,1 C 25,7 km/h
Min-Datum _ 27.01.10 27.01.10 30.01.10 - 26.01.10 - 27.01.10 27.01.10 26.01.10
_ Min-Zeit 23:15 14:00 01:30 - 16:45 - 17:45 23:00 18:15
Minimum _ -12,9 C 50 % 986,1 hPa - 0,0 km/h - -15,9 C -12,9 C 0,0 km/h
Max-Datum _ 29.01.10 28.01.10 26.01.10 26.01.10 28.01.10 - 30.01.10 29.01.10 28.01.10
_ Max-Zeit 13:45 09:00 22:45 22:30 09:15 - 08:45 13:30 19:15
Maximum _ 3,8 C 89 % 1036,8 hPa 0,3 l/m 18,6 km/h
NW
- -0,9 C 3,7 C 46,7 km/h
W-SW
Durchschnitt _ -3,2 C 74 % 1013,0 hPa #1,6 l/m 5,0 km/h NW -7,2 C -4,4 C 14,1 km/h